createdAt,value
2022-09-13T00:01:19.013Z,58.39
2022-09-13T00:04:01.428Z,57.89
2022-09-13T00:06:48.258Z,57.59
2022-09-13T00:09:35.145Z,57.44
2022-09-13T00:12:15.967Z,57.50
2022-09-13T00:15:04.317Z,57.14
2022-09-13T00:17:44.980Z,57.45
2022-09-13T00:20:33.071Z,57.54
2022-09-13T00:23:14.058Z,57.73
2022-09-13T00:26:14.562Z,56.96
2022-09-13T00:29:02.499Z,57.37
2022-09-13T00:31:49.343Z,57.87
2022-09-13T00:34:30.374Z,58.17
2022-09-13T00:37:18.875Z,58.39
2022-09-13T00:40:01.062Z,58.68
2022-09-13T00:42:48.095Z,58.62
2022-09-13T00:45:30.033Z,58.85
2022-09-13T00:48:29.499Z,59.36
2022-09-13T00:51:14.003Z,59.51
2022-09-13T00:54:04.239Z,59.52
2022-09-13T00:56:53.520Z,59.05
2022-09-13T00:59:52.090Z,59.11
2022-09-13T01:02:35.055Z,59.51
2022-09-13T01:05:27.834Z,59.92
2022-09-13T01:08:23.246Z,60.74
2022-09-13T01:11:07.570Z,61.40
2022-09-13T01:13:58.003Z,61.90
2022-09-13T01:16:39.184Z,62.50
2022-09-13T01:19:28.710Z,62.72
2022-09-13T01:22:14.698Z,62.92
2022-09-13T01:25:46.009Z,63.21
2022-09-13T01:28:51.120Z,63.57
2022-09-13T01:32:00.108Z,63.78
2022-09-13T01:34:52.029Z,64.21
2022-09-13T01:38:13.034Z,64.29
2022-09-13T01:41:18.124Z,64.99
2022-09-13T01:44:44.011Z,66.18
2022-09-13T01:47:59.032Z,68.11
2022-09-13T01:50:53.014Z,70.63
2022-09-13T01:53:44.355Z,71.54
2022-09-13T01:56:40.022Z,73.22
2022-09-13T01:59:35.994Z,74.09
2022-09-13T02:02:28.105Z,75.20
2022-09-13T02:05:20.204Z,73.89
2022-09-13T02:08:31.411Z,74.04
2022-09-13T02:11:22.508Z,73.12
2022-09-13T02:14:14.101Z,72.17
2022-09-13T02:17:19.151Z,72.24
2022-09-13T02:20:05.248Z,71.85
2022-09-13T02:23:00.170Z,71.75
2022-09-13T02:25:44.085Z,71.27
2022-09-13T02:28:42.181Z,72.03
2022-09-13T02:31:29.515Z,72.41
2022-09-13T02:34:30.727Z,71.24
2022-09-13T02:37:14.047Z,72.29
2022-09-13T02:40:07.289Z,72.65
2022-09-13T02:42:54.427Z,72.58
2022-09-13T02:46:08.383Z,72.61
2022-09-13T02:49:31.424Z,73.45
2022-09-13T02:52:47.231Z,73.47
2022-09-13T02:55:46.073Z,73.91
2022-09-13T02:58:49.555Z,73.96
2022-09-13T03:01:31.709Z,74.10
2022-09-13T03:04:18.152Z,73.84
2022-09-13T03:07:00.465Z,73.55
2022-09-13T03:10:01.195Z,73.37
2022-09-13T03:13:07.451Z,72.51
2022-09-13T03:16:17.277Z,73.35
2022-09-13T03:19:25.027Z,73.16
2022-09-13T03:22:16.214Z,73.09
2022-09-13T03:25:14.560Z,73.19
2022-09-13T03:28:01.316Z,73.42
2022-09-13T03:30:56.092Z,74.48
2022-09-13T03:34:03.998Z,75.86
2022-09-13T03:37:35.563Z,76.47
2022-09-13T03:40:22.311Z,76.69
2022-09-13T03:43:23.072Z,76.92
2022-09-13T03:46:06.905Z,76.94
2022-09-13T03:48:58.517Z,75.86
2022-09-13T03:51:40.244Z,75.60
2022-09-13T03:54:34.494Z,75.23
2022-09-13T03:57:23.306Z,75.19
2022-09-13T04:00:12.810Z,74.31
2022-09-13T04:02:53.209Z,74.57
2022-09-13T04:05:44.110Z,75.45
2022-09-13T04:08:38.108Z,75.64
2022-09-13T04:11:28.898Z,75.30
2022-09-13T04:14:12.235Z,75.05
2022-09-13T04:17:02.139Z,75.21
2022-09-13T04:19:47.194Z,75.30
2022-09-13T04:22:36.527Z,74.98
2022-09-13T04:25:17.425Z,75.32
2022-09-13T04:28:07.130Z,75.73
2022-09-13T04:30:55.715Z,76.22
2022-09-13T04:33:43.140Z,77.34
2022-09-13T04:36:24.297Z,77.27
2022-09-13T04:39:15.015Z,76.41
2022-09-13T04:41:58.030Z,78.90
2022-09-13T04:44:48.880Z,80.72
2022-09-13T04:47:29.251Z,81.72
2022-09-13T04:50:16.159Z,82.00
2022-09-13T04:52:59.564Z,82.28
2022-09-13T04:55:46.175Z,83.24
2022-09-13T04:58:28.250Z,85.06
2022-09-13T05:01:18.563Z,87.65
2022-09-13T05:03:59.261Z,88.89
2022-09-13T05:06:48.164Z,88.28
2022-09-13T05:09:35.260Z,87.12
2022-09-13T05:12:16.182Z,87.52
2022-09-13T05:15:03.641Z,86.23
2022-09-13T05:17:44.177Z,86.10
2022-09-13T05:20:33.439Z,84.18
2022-09-13T05:23:15.754Z,84.65
2022-09-13T05:26:09.461Z,85.49
2022-09-13T05:28:51.166Z,86.28
2022-09-13T05:31:44.279Z,85.74
2022-09-13T05:34:28.802Z,85.22
2022-09-13T05:37:17.096Z,85.64
2022-09-13T05:40:14.799Z,86.59
2022-09-13T05:43:02.441Z,88.85
2022-09-13T05:45:43.545Z,88.68
2022-09-13T05:48:32.189Z,88.37
2022-09-13T05:51:22.173Z,85.50
2022-09-13T05:54:11.301Z,84.22
2022-09-13T05:56:52.591Z,83.44
2022-09-13T05:59:40.610Z,83.27
2022-09-13T06:02:36.770Z,84.05
2022-09-13T06:05:17.342Z,84.20
2022-09-13T06:08:05.187Z,84.18
2022-09-13T06:10:46.702Z,84.41
2022-09-13T06:13:35.592Z,84.12
2022-09-13T06:16:18.386Z,84.19
2022-09-13T06:19:06.202Z,84.70
2022-09-13T06:21:50.592Z,84.63
2022-09-13T06:24:39.211Z,86.17
2022-09-13T06:27:20.312Z,87.26
2022-09-13T06:30:07.196Z,86.90
2022-09-13T06:32:50.959Z,86.68
2022-09-13T06:35:38.225Z,86.63
2022-09-13T06:38:19.305Z,87.11
2022-09-13T06:41:34.269Z,87.81
2022-09-13T06:44:16.527Z,87.83
2022-09-13T06:47:07.227Z,86.80
2022-09-13T06:49:48.753Z,86.19
2022-09-13T06:52:36.287Z,85.89
2022-09-13T06:55:18.819Z,84.71
2022-09-13T06:58:10.233Z,84.61
2022-09-13T07:00:55.441Z,84.36
2022-09-13T07:03:44.611Z,81.00
2022-09-13T07:06:31.362Z,80.95
2022-09-13T07:09:33.590Z,80.27
2022-09-13T07:12:20.766Z,78.75
2022-09-13T07:15:03.919Z,78.30
2022-09-13T07:17:50.450Z,77.53
2022-09-13T07:23:40.410Z,78.67
2022-09-13T07:26:22.759Z,77.87
2022-09-13T07:29:16.234Z,77.45
2022-09-13T07:32:01.305Z,77.29
2022-09-13T07:34:49.333Z,78.01
2022-09-13T07:37:30.971Z,77.05
2022-09-13T07:40:17.543Z,75.86
2022-09-13T07:42:58.999Z,75.67
2022-09-13T07:45:47.350Z,75.72
2022-09-13T07:48:32.756Z,75.51
2022-09-13T07:51:27.659Z,75.58
2022-09-13T07:54:12.638Z,75.67
2022-09-13T07:57:00.351Z,75.28
2022-09-13T07:59:42.917Z,75.55
2022-09-13T08:02:31.536Z,75.81
2022-09-13T08:05:12.263Z,75.51
2022-09-13T08:08:07.249Z,74.74
2022-09-13T08:10:57.281Z,74.20
2022-09-13T08:13:38.798Z,73.76
2022-09-13T08:16:34.532Z,73.50
2022-09-13T08:19:19.423Z,74.01
2022-09-13T08:22:06.649Z,73.86
2022-09-13T08:24:48.386Z,73.72
2022-09-13T08:27:35.910Z,73.19
2022-09-13T08:30:16.548Z,73.65
2022-09-13T08:33:09.268Z,73.24
2022-09-13T08:35:59.182Z,73.61
2022-09-13T08:38:46.551Z,73.51
2022-09-13T08:41:48.131Z,73.22
2022-09-13T08:44:51.727Z,72.62
2022-09-13T08:47:55.196Z,73.14
2022-09-13T08:50:46.042Z,73.57
2022-09-13T08:53:34.420Z,73.09
2022-09-13T08:56:31.314Z,72.66
2022-09-13T08:59:47.749Z,72.36
2022-09-13T09:03:03.675Z,72.66
2022-09-13T09:05:55.536Z,72.47
2022-09-13T09:09:07.321Z,73.08
2022-09-13T09:12:13.548Z,72.30
2022-09-13T09:15:22.740Z,72.19
2022-09-13T09:18:17.417Z,72.20
2022-09-13T09:21:01.667Z,72.04
2022-09-13T09:24:01.036Z,72.26
2022-09-13T09:26:42.313Z,71.88
2022-09-13T09:29:32.712Z,71.80
2022-09-13T09:32:43.294Z,72.29
2022-09-13T09:35:42.964Z,71.75
2022-09-13T09:38:44.329Z,71.12
2022-09-13T09:41:38.622Z,71.10
2022-09-13T09:44:41.464Z,70.94
2022-09-13T09:47:36.570Z,69.57
2022-09-13T09:50:23.137Z,69.08
2022-09-13T09:53:36.875Z,68.80
2022-09-13T09:56:31.329Z,67.97
2022-09-13T09:59:40.754Z,67.29
2022-09-13T10:02:28.480Z,66.56
2022-09-13T10:05:16.475Z,66.68
2022-09-13T10:08:03.712Z,65.93
2022-09-13T10:11:02.258Z,64.67
2022-09-13T10:13:43.707Z,64.16
2022-09-13T10:16:34.515Z,64.86
2022-09-13T10:19:31.740Z,64.97
2022-09-13T10:22:20.531Z,65.52
2022-09-13T10:25:02.351Z,65.25
2022-09-13T10:27:57.064Z,65.20
2022-09-13T10:30:51.374Z,64.76
2022-09-13T10:33:42.938Z,64.92
2022-09-13T10:36:51.248Z,64.27
2022-09-13T10:39:40.500Z,63.71
2022-09-13T10:42:30.376Z,62.36
2022-09-13T10:45:30.655Z,62.93
2022-09-13T10:48:21.392Z,62.05
2022-09-13T10:51:25.438Z,62.07
2022-09-13T10:54:31.943Z,62.61
2022-09-13T10:57:38.495Z,63.00
2022-09-13T11:00:32.370Z,62.93
2022-09-13T11:03:45.613Z,62.74
2022-09-13T11:07:01.877Z,63.24
2022-09-13T11:09:58.530Z,62.56
2022-09-13T11:16:29.568Z,62.99
2022-09-13T11:19:28.347Z,62.70
2022-09-13T11:23:07.250Z,63.28
2022-09-13T11:26:16.982Z,64.16
2022-09-13T11:29:24.553Z,63.86
2022-09-13T11:32:54.643Z,63.97
2022-09-13T11:36:08.652Z,63.80
2022-09-13T11:39:00.793Z,64.13
2022-09-13T11:42:07.493Z,63.85
2022-09-13T11:45:22.768Z,64.39
2022-09-13T11:48:29.703Z,64.37
2022-09-13T11:51:25.386Z,65.22
2022-09-13T11:54:36.494Z,65.14
2022-09-13T11:57:25.478Z,66.26
2022-09-13T12:00:30.235Z,66.86
2022-09-13T12:03:28.869Z,68.53
2022-09-13T12:06:30.523Z,69.62
2022-09-13T12:09:33.417Z,69.26
2022-09-13T12:12:26.484Z,69.72
2022-09-13T12:15:20.407Z,68.84
2022-09-13T12:18:17.598Z,69.12
2022-09-13T12:21:08.018Z,70.54
2022-09-13T12:24:08.834Z,71.15
2022-09-13T12:27:02.404Z,70.99
2022-09-13T12:30:20.564Z,70.27
2022-09-13T12:33:01.418Z,69.96
2022-09-13T12:36:06.596Z,69.49
2022-09-13T12:39:06.223Z,68.88
2022-09-13T12:42:23.518Z,67.46
2022-09-13T12:45:28.885Z,66.03
2022-09-13T12:48:21.352Z,66.69
2022-09-13T12:51:33.825Z,66.86
2022-09-13T12:54:22.620Z,67.03
2022-09-13T12:57:23.968Z,67.89
2022-09-13T13:00:19.633Z,66.90
2022-09-13T13:03:08.464Z,67.92
2022-09-13T13:06:01.535Z,67.97
2022-09-13T13:09:08.445Z,67.20
2022-09-13T13:12:00.190Z,65.73
2022-09-13T13:14:46.865Z,65.11
2022-09-13T13:17:53.621Z,63.65
2022-09-13T13:21:00.540Z,62.64
2022-09-13T13:23:48.744Z,61.36
2022-09-13T13:27:01.663Z,60.84
2022-09-13T13:29:49.575Z,61.85
2022-09-13T13:32:30.452Z,62.23
2022-09-13T13:35:51.023Z,63.10
2022-09-13T13:38:35.455Z,63.43
2022-09-13T13:41:41.760Z,63.37
2022-09-13T13:44:22.456Z,63.51
2022-09-13T13:47:16.968Z,62.66
2022-09-13T13:50:22.966Z,62.64
2022-09-13T13:53:27.574Z,62.45
2022-09-13T13:56:27.510Z,61.81
2022-09-13T13:59:34.882Z,61.68
2022-09-13T14:02:22.243Z,61.71
2022-09-13T14:05:45.572Z,61.69
2022-09-13T14:08:47.581Z,61.41
2022-09-13T14:12:20.403Z,61.18
2022-09-13T14:15:04.516Z,59.93
2022-09-13T14:18:29.582Z,59.61
2022-09-13T14:21:27.831Z,58.99
2022-09-13T14:24:24.772Z,58.88
2022-09-13T14:27:09.466Z,58.63
2022-09-13T14:30:04.464Z,58.52
2022-09-13T14:32:51.500Z,58.92
2022-09-13T14:35:46.638Z,58.89
2022-09-13T14:38:28.481Z,59.04
2022-09-13T14:41:22.612Z,59.22
2022-09-13T14:44:28.451Z,58.01
2022-09-13T14:47:37.230Z,58.41
2022-09-13T14:50:26.249Z,58.62
2022-09-13T14:53:21.603Z,59.43
2022-09-13T14:56:08.875Z,59.38
2022-09-13T14:59:06.675Z,59.40
2022-09-13T15:01:47.501Z,60.04
2022-09-13T15:04:41.076Z,60.91
2022-09-13T15:07:46.347Z,61.60
2022-09-13T15:10:48.499Z,61.97
2022-09-13T15:13:36.564Z,62.50
2022-09-13T15:16:37.726Z,63.35
2022-09-13T15:19:31.518Z,63.44
2022-09-13T15:22:20.858Z,64.06
2022-09-13T15:25:09.936Z,64.59
2022-09-13T15:27:51.711Z,65.07
2022-09-13T15:30:48.283Z,65.14
2022-09-13T15:33:34.391Z,65.59
2022-09-13T15:36:33.663Z,65.89
2022-09-13T15:39:21.677Z,65.78
2022-09-13T15:42:09.292Z,66.02
2022-09-13T15:44:51.403Z,66.41
2022-09-13T15:47:40.540Z,66.34
2022-09-13T15:50:37.071Z,67.02
2022-09-13T15:53:26.235Z,67.50
2022-09-13T15:56:08.703Z,67.60
2022-09-13T15:58:56.889Z,67.66
2022-09-13T16:01:37.709Z,68.65
2022-09-13T16:04:27.108Z,69.23
2022-09-13T16:07:08.682Z,70.25
2022-09-13T16:10:06.291Z,72.28
2022-09-13T16:12:55.259Z,79.33
2022-09-13T16:15:36.035Z,84.25
2022-09-13T16:18:23.263Z,85.84
2022-09-13T16:21:03.551Z,91.15
2022-09-13T16:23:52.644Z,92.68
2022-09-13T16:26:35.404Z,94.17
2022-09-13T16:29:22.712Z,95.32
2022-09-13T16:32:06.972Z,95.82
2022-09-13T16:34:57.763Z,98.99
2022-09-13T16:37:38.544Z,100.00
2022-09-13T16:40:26.861Z,100.00
2022-09-13T16:43:09.563Z,100.00
2022-09-13T16:45:57.665Z,100.00
2022-09-13T16:48:39.703Z,100.00
2022-09-13T16:51:28.368Z,100.00
2022-09-13T16:54:11.375Z,100.00
2022-09-13T16:57:01.766Z,100.00
2022-09-13T16:59:42.616Z,100.00
2022-09-13T17:02:30.436Z,100.00
2022-09-13T17:05:16.012Z,100.00
2022-09-13T17:08:03.815Z,100.00
2022-09-13T17:13:53.915Z,100.00
2022-09-13T17:16:52.811Z,100.00
2022-09-13T17:19:37.720Z,100.00
2022-09-13T17:22:25.669Z,100.00
2022-09-13T17:25:08.012Z,100.00
2022-09-13T17:27:57.615Z,100.00
2022-09-13T17:30:38.704Z,100.00
2022-09-13T17:33:25.771Z,100.00
2022-09-13T17:36:15.371Z,100.00
2022-09-13T17:39:05.403Z,100.00
2022-09-13T17:41:48.551Z,100.00
2022-09-13T17:44:37.012Z,100.00
2022-09-13T17:47:18.861Z,100.00
2022-09-13T17:50:06.006Z,100.00
2022-09-13T17:52:46.990Z,100.00
2022-09-13T17:55:34.624Z,100.00
2022-09-13T17:58:16.388Z,100.00
2022-09-13T18:01:16.020Z,100.00
2022-09-13T18:03:56.816Z,100.00
2022-09-13T18:06:50.856Z,100.00
2022-09-13T18:09:44.659Z,100.00
2022-09-13T18:12:32.288Z,100.00
2022-09-13T18:15:12.715Z,100.00
2022-09-13T18:18:00.697Z,100.00
2022-09-13T18:20:43.026Z,100.00
2022-09-13T18:23:33.878Z,100.00
2022-09-13T18:26:18.775Z,100.00
2022-09-13T18:29:11.907Z,100.00
2022-09-13T18:31:54.839Z,100.00
2022-09-13T18:34:43.631Z,100.00
2022-09-13T18:37:24.758Z,100.00
2022-09-13T18:40:20.662Z,100.00
2022-09-13T18:43:00.845Z,100.00
2022-09-13T18:45:47.655Z,100.00
2022-09-13T18:48:30.201Z,100.00
2022-09-13T18:51:25.088Z,100.00
2022-09-13T18:54:07.139Z,100.00
2022-09-13T18:56:55.098Z,100.00
2022-09-13T18:59:35.778Z,100.00
2022-09-13T19:02:23.165Z,100.00
2022-09-13T19:05:07.014Z,100.00
2022-09-13T19:07:56.126Z,100.00
2022-09-13T19:10:44.813Z,100.00
2022-09-13T19:13:26.036Z,100.00
2022-09-13T19:16:18.686Z,100.00
2022-09-13T19:19:00.412Z,100.00
2022-09-13T19:21:47.786Z,100.00
2022-09-13T19:24:29.061Z,100.00
2022-09-13T19:27:15.991Z,100.00
2022-09-13T19:29:58.845Z,100.00
2022-09-13T19:32:45.774Z,100.00
2022-09-13T19:35:28.216Z,100.00
2022-09-13T19:38:15.171Z,100.00
2022-09-13T19:41:06.796Z,100.00
2022-09-13T19:43:55.347Z,100.00
2022-09-13T19:46:45.102Z,100.00
2022-09-13T19:49:32.820Z,100.00
2022-09-13T19:52:15.437Z,100.00
2022-09-13T19:55:03.807Z,100.00
2022-09-13T19:57:48.164Z,100.00
2022-09-13T20:00:39.110Z,100.00
2022-09-13T20:03:20.080Z,100.00
2022-09-13T20:06:14.144Z,100.00
2022-09-13T20:08:54.685Z,100.00
2022-09-13T20:12:14.274Z,100.00
2022-09-13T20:14:54.687Z,100.00
2022-09-13T20:17:41.823Z,100.00
2022-09-13T20:20:22.978Z,100.00
2022-09-13T20:23:14.462Z,100.00
2022-09-13T20:25:55.775Z,100.00
2022-09-13T20:28:42.945Z,100.00
2022-09-13T20:31:24.107Z,100.00
2022-09-13T20:34:16.593Z,100.00
2022-09-13T20:36:59.463Z,100.00
2022-09-13T20:39:48.941Z,100.00
2022-09-13T20:42:30.818Z,100.00
2022-09-13T20:45:21.326Z,100.00
2022-09-13T20:48:03.115Z,100.00
2022-09-13T20:50:49.978Z,100.00
2022-09-13T20:53:32.101Z,100.00
2022-09-13T20:56:24.275Z,100.00
2022-09-13T20:59:08.250Z,100.00
2022-09-13T21:01:54.979Z,100.00
2022-09-13T21:04:38.793Z,100.00
2022-09-13T21:07:46.144Z,100.00
2022-09-13T21:10:34.107Z,100.00
2022-09-13T21:13:13.835Z,100.00
2022-09-13T21:16:10.869Z,100.00
2022-09-13T21:19:00.879Z,100.00
2022-09-13T21:21:50.732Z,100.00
2022-09-13T21:24:32.888Z,100.00
2022-09-13T21:27:21.251Z,100.00
2022-09-13T21:30:03.490Z,100.00
2022-09-13T21:32:54.018Z,100.00
2022-09-13T21:35:34.895Z,100.00
2022-09-13T21:38:22.488Z,100.00
2022-09-13T21:41:09.671Z,100.00
2022-09-13T21:44:01.741Z,100.00
2022-09-13T21:46:46.636Z,100.00
2022-09-13T21:49:35.132Z,100.00
2022-09-13T21:52:16.739Z,100.00
2022-09-13T21:55:08.143Z,100.00
2022-09-13T21:57:49.940Z,100.00
2022-09-13T22:00:38.769Z,100.00
2022-09-13T22:03:20.261Z,100.00
2022-09-13T22:06:07.768Z,100.00
2022-09-13T22:08:50.938Z,100.00
2022-09-13T22:11:40.858Z,100.00
2022-09-13T22:14:26.797Z,100.00
2022-09-13T22:17:16.147Z,100.00
2022-09-13T22:19:57.035Z,100.00
2022-09-13T22:22:44.771Z,100.00
2022-09-13T22:25:27.678Z,100.00
2022-09-13T22:28:15.132Z,100.00
2022-09-13T22:30:57.989Z,100.00
2022-09-13T22:33:44.796Z,100.00
2022-09-13T22:36:25.910Z,100.00
2022-09-13T22:39:20.794Z,99.85
2022-09-13T22:42:01.895Z,100.00
2022-09-13T22:44:48.786Z,100.00
2022-09-13T22:47:29.976Z,100.00
2022-09-13T22:50:18.580Z,100.00
2022-09-13T22:53:00.410Z,100.00
2022-09-13T22:55:46.816Z,100.00
2022-09-13T22:58:27.942Z,100.00
2022-09-13T23:01:24.599Z,100.00
2022-09-13T23:04:08.993Z,100.00
2022-09-13T23:06:56.925Z,100.00
2022-09-13T23:09:44.818Z,100.00
2022-09-13T23:12:44.494Z,100.00
2022-09-13T23:15:31.919Z,100.00
2022-09-13T23:18:12.795Z,99.19
2022-09-13T23:21:03.671Z,97.78
2022-09-13T23:23:47.315Z,99.25
2022-09-13T23:26:36.042Z,99.37
2022-09-13T23:29:29.810Z,99.66
2022-09-13T23:32:18.182Z,99.13
2022-09-13T23:34:59.227Z,98.71
2022-09-13T23:37:45.919Z,98.38
2022-09-13T23:40:26.849Z,98.06
2022-09-13T23:43:14.017Z,97.43
2022-09-13T23:45:55.883Z,97.41
2022-09-13T23:48:45.925Z,97.51
2022-09-13T23:51:32.566Z,97.41
2022-09-13T23:54:22.028Z,98.48
2022-09-13T23:57:03.614Z,98.36
2022-09-13T23:59:50.923Z,98.25
